createdAt,value
2023-05-19T00:02:20.922Z,10.18
2023-05-19T00:04:48.277Z,7.88
2023-05-19T00:07:17.587Z,11.20
2023-05-19T00:09:44.049Z,6.15
2023-05-19T00:12:10.765Z,8.40
2023-05-19T00:14:37.284Z,9.40
2023-05-19T00:17:03.776Z,12.10
2023-05-19T00:19:32.380Z,6.43
2023-05-19T00:21:59.133Z,8.30
2023-05-19T00:24:25.536Z,7.32
2023-05-19T00:26:51.929Z,6.55
2023-05-19T00:29:19.125Z,9.23
2023-05-19T00:31:46.240Z,7.57
2023-05-19T00:34:12.812Z,7.85
2023-05-19T00:36:39.290Z,7.93
2023-05-19T00:39:05.688Z,9.15
2023-05-19T00:41:32.076Z,10.20
2023-05-19T00:43:58.532Z,11.15
2023-05-19T00:46:24.976Z,11.73
2023-05-19T00:48:51.471Z,7.75
2023-05-19T00:51:18.140Z,10.27
2023-05-19T00:53:48.993Z,9.60
2023-05-19T00:56:19.159Z,7.28
2023-05-19T00:58:46.040Z,10.38
2023-05-19T01:01:14.563Z,10.00
2023-05-19T01:03:43.097Z,9.65
2023-05-19T01:06:09.649Z,6.57
2023-05-19T01:08:37.531Z,6.15
2023-05-19T01:11:07.542Z,8.57
2023-05-19T01:13:34.749Z,7.82
2023-05-19T01:16:03.953Z,7.88
2023-05-19T01:18:36.176Z,8.23
2023-05-19T01:21:17.147Z,7.63
2023-05-19T01:23:51.171Z,8.48
2023-05-19T01:26:43.882Z,8.25
2023-05-19T01:29:48.805Z,8.27
2023-05-19T01:32:17.008Z,9.50
2023-05-19T01:34:46.270Z,6.00
2023-05-19T01:37:13.172Z,8.07
2023-05-19T01:39:40.263Z,8.30
2023-05-19T01:42:07.033Z,8.45
2023-05-19T01:44:33.622Z,8.55
2023-05-19T01:47:00.820Z,9.15
2023-05-19T01:49:27.272Z,9.27
2023-05-19T01:51:53.791Z,8.07
2023-05-19T01:54:20.253Z,6.97
2023-05-19T01:56:55.511Z,7.63
2023-05-19T01:59:27.794Z,5.93
2023-05-19T02:01:56.764Z,11.45
2023-05-19T02:04:39.856Z,7.22
2023-05-19T02:07:07.399Z,8.35
2023-05-19T02:09:33.749Z,6.55
2023-05-19T02:12:06.220Z,7.30
2023-05-19T02:14:39.186Z,10.23
2023-05-19T02:17:05.957Z,8.32
2023-05-19T02:19:33.796Z,9.33
2023-05-19T02:22:00.255Z,8.02
2023-05-19T02:24:26.741Z,7.82
2023-05-19T02:26:53.658Z,8.55
2023-05-19T02:29:20.695Z,9.48
2023-05-19T02:31:47.402Z,10.35
2023-05-19T02:34:13.915Z,7.63
2023-05-19T02:36:41.466Z,9.68
2023-05-19T02:39:07.897Z,9.32
2023-05-19T02:41:34.250Z,8.52
2023-05-19T02:44:00.644Z,7.00
2023-05-19T02:46:27.079Z,9.98
2023-05-19T02:48:53.505Z,9.63
2023-05-19T02:51:19.870Z,7.80
2023-05-19T02:53:46.277Z,7.90
2023-05-19T02:56:12.736Z,12.43
2023-05-19T02:58:39.486Z,9.15
2023-05-19T03:01:05.883Z,7.93
2023-05-19T03:03:32.872Z,6.78
2023-05-19T03:05:59.340Z,8.48
2023-05-19T03:08:25.706Z,6.70
2023-05-19T03:10:52.061Z,9.13
2023-05-19T03:13:18.463Z,8.10
2023-05-19T03:15:45.080Z,7.53
2023-05-19T03:18:14.574Z,7.85
2023-05-19T03:20:42.418Z,7.88
2023-05-19T03:25:35.485Z,6.77
2023-05-19T03:28:01.871Z,9.48
2023-05-19T03:30:28.278Z,8.68
2023-05-19T03:32:54.722Z,7.40
2023-05-19T03:35:21.242Z,7.95
2023-05-19T03:37:47.624Z,8.05
2023-05-19T03:40:14.090Z,7.63
2023-05-19T03:42:40.452Z,10.20
2023-05-19T03:45:07.105Z,6.85
2023-05-19T03:47:33.483Z,8.50
2023-05-19T03:49:59.916Z,7.95
2023-05-19T03:52:26.279Z,8.23
2023-05-19T03:54:52.978Z,8.00
2023-05-19T03:57:19.413Z,8.82
2023-05-19T03:59:46.019Z,8.18
2023-05-19T04:02:12.485Z,8.57
2023-05-19T04:04:39.128Z,9.80
2023-05-19T04:07:05.722Z,7.40
2023-05-19T04:09:35.111Z,7.50
2023-05-19T04:12:02.917Z,9.00
2023-05-19T04:16:55.779Z,10.15
2023-05-19T04:19:22.257Z,8.93
2023-05-19T04:21:48.889Z,10.40
2023-05-19T04:24:15.337Z,11.05
2023-05-19T04:26:45.869Z,9.07
2023-05-19T04:29:13.827Z,10.00
2023-05-19T04:31:41.096Z,9.82
2023-05-19T04:34:10.495Z,9.90
2023-05-19T04:36:37.779Z,12.63
2023-05-19T04:39:07.687Z,12.32
2023-05-19T04:41:34.717Z,12.60
2023-05-19T04:44:01.112Z,15.95
2023-05-19T04:46:30.075Z,12.18
2023-05-19T04:48:57.315Z,12.27
2023-05-19T04:51:30.334Z,11.88
2023-05-19T04:53:57.387Z,14.43
2023-05-19T04:56:23.831Z,10.35
2023-05-19T04:58:50.687Z,13.70
2023-05-19T05:01:17.096Z,12.43
2023-05-19T05:03:43.602Z,12.30
2023-05-19T05:06:10.479Z,11.80
2023-05-19T05:08:40.029Z,12.23
2023-05-19T05:11:06.621Z,12.60
2023-05-19T05:13:33.100Z,13.68
2023-05-19T05:16:00.076Z,12.52
2023-05-19T05:18:26.623Z,11.93
2023-05-19T05:20:53.102Z,12.63
2023-05-19T05:23:19.632Z,12.57
2023-05-19T05:25:47.034Z,14.90
2023-05-19T05:28:13.620Z,10.82
2023-05-19T05:30:41.405Z,13.25
2023-05-19T05:35:34.359Z,12.82
2023-05-19T05:38:01.811Z,14.52
2023-05-19T05:40:28.337Z,13.02
2023-05-19T05:42:59.104Z,11.57
2023-05-19T05:45:25.801Z,15.00
2023-05-19T05:47:52.454Z,14.43
2023-05-19T05:50:19.044Z,12.02
2023-05-19T05:52:48.480Z,15.80
2023-05-19T05:55:15.477Z,14.65
2023-05-19T05:57:41.960Z,11.43
2023-05-19T06:00:17.838Z,11.32
2023-05-19T06:02:49.396Z,11.95
2023-05-19T06:05:16.557Z,13.48
2023-05-19T06:07:43.157Z,11.27
2023-05-19T06:10:12.766Z,11.25
2023-05-19T06:12:40.701Z,11.25
2023-05-19T06:15:08.013Z,9.63
2023-05-19T06:17:37.143Z,8.95
2023-05-19T06:20:05.596Z,12.55
2023-05-19T06:22:32.191Z,8.95
2023-05-19T06:24:58.630Z,10.38
2023-05-19T06:27:25.056Z,9.75
2023-05-19T06:29:51.437Z,9.10
2023-05-19T06:32:17.808Z,8.55
2023-05-19T06:34:44.173Z,8.25
2023-05-19T06:37:11.184Z,6.10
2023-05-19T06:39:38.025Z,7.20
2023-05-19T06:42:04.547Z,8.17
2023-05-19T06:44:30.956Z,9.88
2023-05-19T06:46:57.337Z,8.00
2023-05-19T06:49:24.044Z,7.90
2023-05-19T06:51:50.524Z,5.50
2023-05-19T06:54:16.975Z,9.98
2023-05-19T06:56:43.358Z,7.68
2023-05-19T06:59:09.810Z,9.00
2023-05-19T07:01:36.223Z,6.97
2023-05-19T07:04:02.661Z,7.03
2023-05-19T07:06:29.517Z,8.63
2023-05-19T07:08:55.919Z,8.25
2023-05-19T07:11:22.756Z,7.78
2023-05-19T07:13:49.195Z,9.10
2023-05-19T07:16:15.751Z,9.38
2023-05-19T07:18:42.162Z,7.07
2023-05-19T07:21:08.730Z,9.57
2023-05-19T07:23:35.156Z,7.53
2023-05-19T07:26:01.568Z,8.73
2023-05-19T07:28:27.955Z,7.00
2023-05-19T07:30:54.351Z,11.15
2023-05-19T07:33:20.777Z,6.32
2023-05-19T07:35:47.518Z,6.88
2023-05-19T07:38:14.034Z,8.70
2023-05-19T07:40:40.404Z,6.88
2023-05-19T07:43:06.844Z,7.78
2023-05-19T07:45:33.239Z,8.88
2023-05-19T07:47:59.674Z,7.28
2023-05-19T07:50:26.592Z,7.07
2023-05-19T07:52:53.020Z,7.85
2023-05-19T07:55:19.539Z,8.85
2023-05-19T07:57:45.950Z,7.28
2023-05-19T08:00:13.406Z,7.85
2023-05-19T08:05:06.490Z,7.55
2023-05-19T08:07:33.135Z,7.43
2023-05-19T08:09:59.568Z,8.93
2023-05-19T08:12:25.984Z,7.82
2023-05-19T08:14:52.750Z,7.50
2023-05-19T08:17:19.206Z,6.40
2023-05-19T08:19:45.871Z,7.87
2023-05-19T08:22:12.241Z,7.90
2023-05-19T08:24:39.252Z,5.73
2023-05-19T08:27:06.783Z,6.88
2023-05-19T08:29:33.168Z,6.07
2023-05-19T08:32:00.271Z,6.97
2023-05-19T08:36:53.451Z,5.97
2023-05-19T08:39:24.181Z,6.32
2023-05-19T08:41:50.726Z,7.47
2023-05-19T08:44:18.888Z,6.40
2023-05-19T08:46:47.414Z,5.03
2023-05-19T08:49:15.658Z,8.10
2023-05-19T08:51:55.950Z,9.35
2023-05-19T08:54:25.645Z,7.68
2023-05-19T08:56:52.151Z,7.22
2023-05-19T08:59:19.478Z,6.65
2023-05-19T09:01:46.456Z,7.03
2023-05-19T09:04:13.019Z,7.00
2023-05-19T09:06:42.407Z,9.02
2023-05-19T09:09:09.226Z,7.80
2023-05-19T09:11:38.404Z,5.55
2023-05-19T09:14:05.255Z,6.65
2023-05-19T09:16:32.727Z,6.35
2023-05-19T09:19:00.942Z,6.30
2023-05-19T09:21:31.047Z,7.70
2023-05-19T09:23:59.158Z,5.95
2023-05-19T09:26:36.394Z,6.35
2023-05-19T09:29:03.223Z,5.05
2023-05-19T09:31:32.061Z,6.72
2023-05-19T09:33:58.491Z,7.47
2023-05-19T09:36:24.886Z,5.75
2023-05-19T09:38:51.669Z,6.15
2023-05-19T09:41:18.076Z,5.93
2023-05-19T09:43:54.041Z,7.05
2023-05-19T09:46:26.641Z,4.10
2023-05-19T09:48:56.921Z,4.75
2023-05-19T09:51:23.785Z,4.78
2023-05-19T09:53:50.206Z,5.28
2023-05-19T09:56:17.348Z,5.60
2023-05-19T09:58:43.788Z,6.88
2023-05-19T10:01:10.234Z,5.88
2023-05-19T10:03:37.821Z,6.20
2023-05-19T10:06:04.617Z,5.45
2023-05-19T10:08:31.825Z,5.90
2023-05-19T10:10:58.376Z,3.63
2023-05-19T10:18:22.969Z,4.70
2023-05-19T10:20:50.060Z,5.68
2023-05-19T10:23:16.697Z,5.72
2023-05-19T10:25:43.442Z,5.07
2023-05-19T10:28:12.878Z,6.43
2023-05-19T10:30:41.150Z,6.88
2023-05-19T10:33:09.706Z,6.70
2023-05-19T10:35:48.310Z,5.10
2023-05-19T10:38:29.740Z,5.72
2023-05-19T10:40:59.176Z,4.35
2023-05-19T10:43:25.528Z,6.80
2023-05-19T10:45:52.913Z,4.75
2023-05-19T10:48:19.866Z,4.75
2023-05-19T10:50:47.005Z,4.28
2023-05-19T10:53:14.261Z,5.07
2023-05-19T10:55:50.458Z,4.18
2023-05-19T10:58:36.397Z,4.22
2023-05-19T11:01:02.922Z,6.20
2023-05-19T11:03:30.928Z,4.72
2023-05-19T11:06:32.983Z,6.00
2023-05-19T11:09:06.123Z,5.63
2023-05-19T11:11:51.812Z,5.35
2023-05-19T11:14:19.172Z,4.72
2023-05-19T11:16:49.762Z,6.18
2023-05-19T11:19:19.995Z,4.82
2023-05-19T11:21:55.007Z,5.60
2023-05-19T11:24:40.410Z,5.97
2023-05-19T11:27:18.820Z,4.90
2023-05-19T11:29:45.781Z,5.63
2023-05-19T11:32:12.884Z,4.38
2023-05-19T11:34:39.969Z,6.22
2023-05-19T11:37:06.789Z,5.05
2023-05-19T11:39:33.348Z,4.55
2023-05-19T11:41:59.714Z,4.47
2023-05-19T11:44:26.280Z,3.97
2023-05-19T11:46:53.082Z,6.70
2023-05-19T11:49:19.673Z,5.13
2023-05-19T11:51:46.266Z,6.32
2023-05-19T11:54:12.953Z,4.80
2023-05-19T11:56:42.852Z,5.50
2023-05-19T11:59:09.702Z,5.38
2023-05-19T12:01:36.324Z,5.97
2023-05-19T12:04:03.096Z,6.28
2023-05-19T12:06:29.874Z,5.65
2023-05-19T12:08:56.822Z,5.13
2023-05-19T12:11:23.477Z,4.65
2023-05-19T12:13:50.947Z,4.97
2023-05-19T12:16:20.442Z,5.35
2023-05-19T12:18:46.936Z,5.18
2023-05-19T12:23:41.495Z,7.45
2023-05-19T12:26:08.153Z,7.30
2023-05-19T12:31:02.359Z,5.88
2023-05-19T12:33:28.795Z,7.30
2023-05-19T12:35:55.321Z,6.80
2023-05-19T12:38:22.577Z,7.60
2023-05-19T12:40:49.873Z,6.70
2023-05-19T12:43:20.092Z,4.90
2023-05-19T12:45:46.585Z,7.93
2023-05-19T12:48:15.873Z,5.88
2023-05-19T12:50:43.007Z,4.50
2023-05-19T12:53:10.868Z,7.22
2023-05-19T12:55:43.699Z,6.07
2023-05-19T12:58:12.926Z,5.20
2023-05-19T13:00:44.819Z,6.32
2023-05-19T13:03:18.290Z,13.98
2023-05-19T13:05:49.029Z,4.60
2023-05-19T13:08:20.209Z,5.47
2023-05-19T13:10:47.057Z,5.13
2023-05-19T13:13:13.804Z,4.93
2023-05-19T13:15:44.786Z,5.65
2023-05-19T13:18:12.252Z,4.28
2023-05-19T13:20:39.725Z,5.65
2023-05-19T13:23:06.629Z,7.03
2023-05-19T13:28:01.486Z,5.03
2023-05-19T13:30:28.280Z,8.68
2023-05-19T13:32:54.857Z,7.93
2023-05-19T13:35:21.359Z,5.65
2023-05-19T13:37:49.388Z,6.70
2023-05-19T13:40:16.058Z,6.28
2023-05-19T13:42:42.696Z,5.00
2023-05-19T13:45:09.478Z,7.03
2023-05-19T13:47:35.958Z,5.97
2023-05-19T13:50:03.198Z,5.18
2023-05-19T13:52:30.492Z,8.85
2023-05-19T13:54:57.349Z,5.10
2023-05-19T13:57:24.019Z,5.43
2023-05-19T14:00:01.662Z,7.55
2023-05-19T14:02:30.014Z,9.32
2023-05-19T14:04:56.808Z,9.20
2023-05-19T14:07:23.658Z,7.70
2023-05-19T14:09:51.188Z,9.07
2023-05-19T14:12:17.742Z,5.22
2023-05-19T14:14:44.148Z,5.68
2023-05-19T14:17:10.814Z,5.30
2023-05-19T14:19:37.187Z,5.80
2023-05-19T14:22:03.748Z,6.03
2023-05-19T14:24:30.528Z,5.35
2023-05-19T14:26:56.966Z,4.40
2023-05-19T14:29:23.344Z,5.43
2023-05-19T14:31:49.868Z,5.70
2023-05-19T14:34:21.059Z,4.38
2023-05-19T14:36:48.630Z,4.22
2023-05-19T14:39:15.167Z,3.97
2023-05-19T14:44:07.915Z,5.43
2023-05-19T14:46:34.349Z,4.03
2023-05-19T14:51:27.462Z,5.13
2023-05-19T14:56:20.137Z,4.03
2023-05-19T14:58:46.495Z,3.75
2023-05-19T15:03:39.327Z,4.70
2023-05-19T15:06:09.837Z,3.58
2023-05-19T15:08:37.852Z,5.45
2023-05-19T15:11:04.414Z,3.67
2023-05-19T15:13:30.870Z,2.83
2023-05-19T15:16:12.546Z,4.68
2023-05-19T15:18:43.211Z,3.50
2023-05-19T15:21:09.740Z,3.58
2023-05-19T15:23:36.123Z,3.00
2023-05-19T15:26:02.530Z,3.63
2023-05-19T15:28:28.934Z,3.90
2023-05-19T15:30:55.346Z,3.42
2023-05-19T15:33:21.848Z,4.30
2023-05-19T15:35:51.615Z,3.10
2023-05-19T15:38:18.868Z,2.42
2023-05-19T15:40:45.292Z,4.80
2023-05-19T15:43:11.712Z,6.78
2023-05-19T15:45:38.081Z,9.07
2023-05-19T15:48:04.580Z,9.27
2023-05-19T15:50:31.021Z,7.03
2023-05-19T15:52:57.524Z,7.07
2023-05-19T15:55:23.902Z,7.85
2023-05-19T15:57:50.301Z,9.00
2023-05-19T16:00:16.685Z,8.03
2023-05-19T16:02:43.263Z,8.03
2023-05-19T16:05:09.684Z,8.00
2023-05-19T16:07:36.169Z,8.30
2023-05-19T16:10:02.596Z,9.27
2023-05-19T16:12:29.558Z,6.85
2023-05-19T16:14:55.957Z,8.35
2023-05-19T16:17:22.386Z,8.00
2023-05-19T16:19:48.776Z,8.50
2023-05-19T16:22:15.137Z,6.78
2023-05-19T16:24:41.524Z,8.15
2023-05-19T16:27:07.926Z,6.30
2023-05-19T16:29:34.292Z,6.47
2023-05-19T16:32:00.742Z,6.70
2023-05-19T16:34:28.555Z,5.78
2023-05-19T16:36:55.636Z,6.85
2023-05-19T16:39:22.155Z,7.65
2023-05-19T16:41:48.540Z,7.00
2023-05-19T16:44:14.990Z,6.38
2023-05-19T16:46:41.329Z,7.32
2023-05-19T16:49:07.731Z,6.53
2023-05-19T16:51:34.109Z,6.22
2023-05-19T16:54:00.552Z,5.35
2023-05-19T16:56:27.070Z,5.53
2023-05-19T16:58:54.653Z,7.07
2023-05-19T17:01:21.576Z,5.80
2023-05-19T17:03:48.112Z,6.38
2023-05-19T17:06:14.490Z,8.67
2023-05-19T17:08:40.858Z,6.38
2023-05-19T17:11:07.328Z,6.22
2023-05-19T17:13:36.134Z,6.85
2023-05-19T17:16:02.849Z,7.18
2023-05-19T17:18:31.165Z,7.05
2023-05-19T17:20:59.248Z,6.35
2023-05-19T17:23:25.670Z,7.10
2023-05-19T17:25:53.924Z,9.32
2023-05-19T17:28:20.458Z,7.20
2023-05-19T17:30:46.974Z,9.33
2023-05-19T17:33:13.402Z,7.22
2023-05-19T17:35:41.212Z,6.65
2023-05-19T17:38:07.574Z,7.13
2023-05-19T17:40:34.523Z,10.82
2023-05-19T17:43:01.169Z,7.10
2023-05-19T17:45:27.564Z,7.90
2023-05-19T17:47:53.973Z,6.35
2023-05-19T17:50:20.561Z,9.23
2023-05-19T17:52:47.119Z,9.53
2023-05-19T17:55:14.055Z,7.90
2023-05-19T17:57:43.478Z,9.68
2023-05-19T18:00:10.517Z,6.10
2023-05-19T18:02:37.366Z,7.47
2023-05-19T18:05:04.316Z,5.47
2023-05-19T18:07:32.572Z,5.13
2023-05-19T18:10:00.310Z,5.00
2023-05-19T18:12:26.699Z,5.65
2023-05-19T18:14:53.071Z,5.35
2023-05-19T18:17:19.776Z,4.47
2023-05-19T18:19:46.313Z,5.40
2023-05-19T18:22:14.795Z,4.47
2023-05-19T18:24:41.504Z,5.70
2023-05-19T18:27:07.864Z,6.25
2023-05-19T18:29:34.607Z,4.43
2023-05-19T18:32:01.275Z,4.53
2023-05-19T18:34:29.491Z,4.82
2023-05-19T18:36:56.136Z,6.38
2023-05-19T18:39:22.674Z,5.93
2023-05-19T18:41:49.702Z,6.20
2023-05-19T18:44:16.123Z,7.03
2023-05-19T18:46:42.565Z,9.15
2023-05-19T18:49:11.529Z,8.00
2023-05-19T18:51:38.155Z,8.05
2023-05-19T18:54:04.555Z,6.00
2023-05-19T18:56:33.968Z,5.90
2023-05-19T18:59:00.340Z,6.38
2023-05-19T19:01:26.929Z,8.13
2023-05-19T19:03:53.389Z,6.80
2023-05-19T19:06:23.354Z,6.35
2023-05-19T19:08:49.900Z,5.47
2023-05-19T19:11:16.516Z,6.60
2023-05-19T19:13:43.597Z,4.50
2023-05-19T19:16:09.974Z,5.22
2023-05-19T19:18:36.714Z,5.57
2023-05-19T19:21:05.394Z,5.22
2023-05-19T19:23:31.978Z,6.07
2023-05-19T19:25:58.451Z,6.03
2023-05-19T19:28:24.890Z,7.55
2023-05-19T19:30:51.396Z,6.97
2023-05-19T19:33:17.943Z,7.50
2023-05-19T19:35:45.071Z,9.32
2023-05-19T19:38:11.495Z,8.57
2023-05-19T19:40:37.862Z,5.43
2023-05-19T19:43:04.234Z,5.75
2023-05-19T19:45:30.746Z,17.33
2023-05-19T19:47:57.168Z,12.05
2023-05-19T19:50:23.724Z,9.65
2023-05-19T19:52:50.125Z,5.85
2023-05-19T19:55:16.521Z,6.00
2023-05-19T19:57:45.564Z,8.82
2023-05-19T20:00:12.236Z,6.35
2023-05-19T20:02:55.316Z,6.27
2023-05-19T20:05:26.038Z,6.13
2023-05-19T20:07:52.406Z,5.50
2023-05-19T20:10:18.764Z,5.35
2023-05-19T20:12:47.163Z,6.18
2023-05-19T20:15:13.576Z,6.13
2023-05-19T20:17:40.174Z,5.28
2023-05-19T20:20:09.898Z,5.97
2023-05-19T20:22:36.392Z,5.28
2023-05-19T20:25:02.797Z,6.40
2023-05-19T20:27:29.193Z,5.47
2023-05-19T20:29:55.547Z,6.70
2023-05-19T20:32:21.942Z,8.20
2023-05-19T20:34:48.370Z,7.43
2023-05-19T20:37:14.787Z,7.43
2023-05-19T20:39:41.229Z,7.53
2023-05-19T20:42:08.415Z,6.80
2023-05-19T20:44:34.824Z,10.57
2023-05-19T20:47:01.208Z,7.88
2023-05-19T20:49:27.594Z,8.20
2023-05-19T20:51:53.960Z,9.10
2023-05-19T20:54:20.406Z,8.25
2023-05-19T20:56:46.912Z,7.32
2023-05-19T20:59:13.279Z,8.55
2023-05-19T21:01:39.859Z,8.95
2023-05-19T21:04:07.958Z,7.40
2023-05-19T21:06:34.479Z,10.38
2023-05-19T21:09:03.743Z,7.25
2023-05-19T21:11:30.456Z,8.38
2023-05-19T21:13:56.843Z,6.97
2023-05-19T21:16:23.290Z,7.88
2023-05-19T21:18:49.741Z,7.85
2023-05-19T21:21:16.450Z,7.35
2023-05-19T21:23:43.155Z,7.03
2023-05-19T21:26:09.570Z,7.65
2023-05-19T21:28:36.512Z,7.15
2023-05-19T21:31:05.330Z,7.68
2023-05-19T21:33:32.076Z,8.55
2023-05-19T21:36:00.281Z,9.02
2023-05-19T21:38:27.170Z,8.18
2023-05-19T21:40:53.694Z,10.20
2023-05-19T21:43:21.377Z,8.17
2023-05-19T21:45:48.063Z,7.78
2023-05-19T21:48:14.499Z,7.47
2023-05-19T21:50:41.231Z,8.43
2023-05-19T21:53:07.729Z,8.43
2023-05-19T21:55:34.285Z,7.55
2023-05-19T21:58:02.631Z,10.43
2023-05-19T22:00:29.293Z,9.05
2023-05-19T22:02:55.821Z,10.07
2023-05-19T22:05:22.680Z,8.10
2023-05-19T22:07:49.213Z,8.43
2023-05-19T22:10:15.637Z,9.30
2023-05-19T22:12:42.043Z,10.75
2023-05-19T22:15:08.828Z,10.68
2023-05-19T22:17:35.286Z,12.10
2023-05-19T22:20:01.678Z,13.18
2023-05-19T22:22:28.518Z,12.10
2023-05-19T22:24:55.385Z,12.57
2023-05-19T22:27:21.793Z,13.27
2023-05-19T22:29:48.171Z,11.85
2023-05-19T22:32:17.911Z,12.00
2023-05-19T22:34:44.844Z,12.38
2023-05-19T22:37:11.625Z,12.65
2023-05-19T22:39:38.884Z,12.32
2023-05-19T22:42:05.619Z,12.32
2023-05-19T22:44:32.034Z,11.35
2023-05-19T22:46:58.441Z,13.13
2023-05-19T22:49:25.711Z,12.10
2023-05-19T22:51:52.224Z,11.60
2023-05-19T22:54:18.689Z,14.52
2023-05-19T22:56:46.382Z,14.27
2023-05-19T22:59:12.904Z,13.95
2023-05-19T23:01:39.424Z,12.95
2023-05-19T23:04:06.364Z,12.30
2023-05-19T23:06:32.778Z,12.27
2023-05-19T23:09:00.726Z,14.43
2023-05-19T23:11:27.235Z,12.07
2023-05-19T23:13:53.619Z,11.95
2023-05-19T23:16:20.029Z,13.55
2023-05-19T23:18:46.441Z,15.02
2023-05-19T23:21:12.943Z,13.77
2023-05-19T23:23:39.469Z,12.98
2023-05-19T23:26:05.932Z,12.98
2023-05-19T23:28:32.289Z,13.32
2023-05-19T23:30:58.922Z,13.85
2023-05-19T23:33:25.312Z,14.40
2023-05-19T23:35:51.680Z,13.18
2023-05-19T23:38:18.055Z,14.38
2023-05-19T23:40:44.460Z,13.40
2023-05-19T23:43:10.881Z,15.13
2023-05-19T23:45:37.273Z,14.68
2023-05-19T23:48:03.792Z,13.90
2023-05-19T23:50:30.170Z,14.80
2023-05-19T23:52:56.819Z,14.55
2023-05-19T23:55:23.455Z,12.50
2023-05-19T23:57:49.817Z,13.95
